createdAt,value
2022-10-06T04:49:19.058Z,77.00
2022-10-06T04:52:22.929Z,76.90
2022-10-06T04:55:24.613Z,77.00
2022-10-06T04:58:27.391Z,77.00
2022-10-06T05:01:33.751Z,77.10
2022-10-06T05:04:35.506Z,77.10
2022-10-06T05:07:37.161Z,77.20
2022-10-06T05:10:38.962Z,77.30
2022-10-06T05:13:40.696Z,77.50
2022-10-06T05:16:43.098Z,77.50
2022-10-06T05:19:45.159Z,77.60
2022-10-06T05:22:46.829Z,77.70
2022-10-06T05:25:52.992Z,77.70
2022-10-06T05:28:54.745Z,77.70
2022-10-06T05:31:56.465Z,77.80
2022-10-06T05:34:58.198Z,77.70
2022-10-06T05:37:59.835Z,77.80
2022-10-06T05:41:12.053Z,77.90
2022-10-06T05:44:13.730Z,77.80
2022-10-06T05:47:15.417Z,77.80
2022-10-06T05:50:17.148Z,77.80
2022-10-06T05:53:18.802Z,77.80
2022-10-06T05:56:22.219Z,77.90
2022-10-06T05:59:24.176Z,77.80
2022-10-06T06:02:25.988Z,77.90
2022-10-06T06:05:27.699Z,77.90
2022-10-06T06:08:29.692Z,77.80
2022-10-06T06:11:31.927Z,77.80
2022-10-06T06:14:52.079Z,77.70
2022-10-06T06:17:53.724Z,77.80
2022-10-06T06:21:06.549Z,77.80
2022-10-06T06:24:08.216Z,77.60
2022-10-06T06:27:09.911Z,77.60
2022-10-06T06:30:12.191Z,77.60
2022-10-06T06:33:13.838Z,77.60
2022-10-06T06:36:16.153Z,77.50
2022-10-06T06:39:19.844Z,77.30
2022-10-06T06:42:21.506Z,77.20
2022-10-06T06:45:23.382Z,77.10
2022-10-06T06:48:25.301Z,77.10
2022-10-06T06:51:27.710Z,77.00
2022-10-06T06:54:29.378Z,77.00
2022-10-06T06:57:31.067Z,76.90
2022-10-06T07:00:36.170Z,76.80
2022-10-06T07:03:56.541Z,76.70
2022-10-06T07:06:59.097Z,76.50
2022-10-06T07:10:01.147Z,76.30
2022-10-06T07:13:03.939Z,76.20
2022-10-06T07:16:24.329Z,76.00
2022-10-06T07:19:44.452Z,75.90
2022-10-06T07:23:04.752Z,75.70
2022-10-06T07:26:07.138Z,75.50
2022-10-06T07:29:09.338Z,75.40
2022-10-06T07:32:11.022Z,75.10
2022-10-06T07:35:12.754Z,75.00
2022-10-06T07:38:14.468Z,74.70
2022-10-06T07:41:20.360Z,74.50
2022-10-06T07:44:23.030Z,74.30
2022-10-06T07:47:24.859Z,74.00
2022-10-06T07:50:26.582Z,73.80
2022-10-06T07:53:28.324Z,73.50
2022-10-06T07:56:30.042Z,73.20
2022-10-06T07:59:32.025Z,73.00
2022-10-06T08:02:35.761Z,72.70
2022-10-06T08:05:40.311Z,72.60
2022-10-06T08:08:43.144Z,72.30
2022-10-06T08:11:47.251Z,72.10
2022-10-06T08:14:48.924Z,71.70
2022-10-06T08:17:53.889Z,71.40
2022-10-06T08:20:56.114Z,71.10
2022-10-06T08:23:58.396Z,70.90
2022-10-06T08:27:00.076Z,70.80
2022-10-06T08:30:02.607Z,70.60
2022-10-06T08:33:05.582Z,70.40
2022-10-06T08:36:10.266Z,70.20
2022-10-06T08:39:12.032Z,69.90
2022-10-06T08:42:18.498Z,69.40
2022-10-06T08:45:40.406Z,69.10
2022-10-06T08:48:42.122Z,68.80
2022-10-06T08:52:00.956Z,68.50
2022-10-06T08:55:25.560Z,67.90
2022-10-06T08:58:47.090Z,67.40
2022-10-06T09:01:49.516Z,67.30
2022-10-06T09:04:51.241Z,67.10
2022-10-06T09:08:12.435Z,66.90
2022-10-06T09:11:17.671Z,66.70
2022-10-06T09:14:26.789Z,66.40
2022-10-06T09:17:32.750Z,66.20
2022-10-06T09:21:04.413Z,66.10
2022-10-06T09:24:18.059Z,65.90
2022-10-06T09:27:24.647Z,65.70
2022-10-06T09:30:26.444Z,65.60
2022-10-06T09:33:28.089Z,65.30
2022-10-06T09:36:29.802Z,65.40
2022-10-06T09:39:39.011Z,65.40
2022-10-06T09:42:40.834Z,65.30
2022-10-06T09:45:42.639Z,65.20
2022-10-06T09:48:44.375Z,64.90
2022-10-06T09:52:15.127Z,64.90
2022-10-06T09:55:17.881Z,64.70
2022-10-06T09:58:22.242Z,64.50
2022-10-06T10:01:27.576Z,64.40
2022-10-06T10:04:35.551Z,64.40
2022-10-06T10:07:37.378Z,64.10
2022-10-06T10:10:39.428Z,63.70
2022-10-06T10:13:42.595Z,63.70
2022-10-06T10:16:44.387Z,63.50
2022-10-06T10:19:56.367Z,63.10
2022-10-06T10:22:59.657Z,62.90
2022-10-06T10:26:30.709Z,62.80
2022-10-06T10:29:34.607Z,62.70
2022-10-06T10:32:42.308Z,62.60
2022-10-06T10:35:46.391Z,62.60
2022-10-06T10:38:48.216Z,62.40
2022-10-06T10:41:51.003Z,62.30
2022-10-06T10:45:00.196Z,62.20
2022-10-06T10:48:38.647Z,62.00
2022-10-06T10:52:09.974Z,61.90
2022-10-06T10:55:39.734Z,61.80
2022-10-06T10:58:44.406Z,61.70
2022-10-06T11:02:12.891Z,61.50
2022-10-06T11:05:28.250Z,61.10
2022-10-06T11:08:39.839Z,60.60
2022-10-06T11:11:46.481Z,60.50
2022-10-06T11:15:04.206Z,60.50
2022-10-06T11:18:44.090Z,60.20
2022-10-06T11:21:48.483Z,59.70
2022-10-06T11:24:53.296Z,59.60
2022-10-06T11:28:15.155Z,59.20
2022-10-06T11:31:37.962Z,59.00
2022-10-06T11:34:39.730Z,58.90
2022-10-06T11:37:57.214Z,58.80
2022-10-06T11:41:28.240Z,58.60
2022-10-06T11:44:33.525Z,58.30
2022-10-06T11:47:41.993Z,58.00
2022-10-06T11:50:44.546Z,57.80
2022-10-06T11:53:46.299Z,57.80
2022-10-06T11:56:47.957Z,57.60
2022-10-06T11:59:52.938Z,57.20
2022-10-06T12:02:54.711Z,57.10
2022-10-06T12:05:57.398Z,56.80
2022-10-06T12:08:59.268Z,56.50
2022-10-06T12:12:27.028Z,56.50
2022-10-06T12:19:31.114Z,56.20
2022-10-06T12:22:54.055Z,55.90
2022-10-06T12:26:04.124Z,55.50
2022-10-06T12:29:18.324Z,54.70
2022-10-06T12:32:36.890Z,54.60
2022-10-06T12:35:40.099Z,54.40
2022-10-06T12:39:06.944Z,54.30
2022-10-06T12:42:18.706Z,54.20
2022-10-06T12:45:21.435Z,54.30
2022-10-06T12:48:38.142Z,53.90
2022-10-06T12:51:43.782Z,53.60
2022-10-06T12:54:53.534Z,53.60
2022-10-06T12:57:55.751Z,54.00
2022-10-06T13:01:04.649Z,54.30
2022-10-06T13:04:21.424Z,54.60
2022-10-06T13:07:25.649Z,54.60
2022-10-06T13:10:29.429Z,54.20
2022-10-06T13:13:31.154Z,53.80
2022-10-06T13:16:33.225Z,53.80
2022-10-06T13:19:35.002Z,53.70
2022-10-06T13:22:36.725Z,53.70
2022-10-06T13:25:46.416Z,54.00
2022-10-06T13:29:09.461Z,54.30
2022-10-06T13:32:17.290Z,54.00
2022-10-06T13:35:21.604Z,54.10
2022-10-06T13:38:23.309Z,54.00
2022-10-06T13:41:51.294Z,53.70
2022-10-06T13:44:57.794Z,53.60
2022-10-06T13:48:15.085Z,53.70
2022-10-06T13:51:18.609Z,53.80
2022-10-06T13:54:39.444Z,53.80
2022-10-06T13:57:47.355Z,53.70
2022-10-06T14:00:50.309Z,53.50
2022-10-06T14:04:01.175Z,53.30
2022-10-06T14:07:02.884Z,52.80
2022-10-06T14:10:04.871Z,52.90
2022-10-06T14:13:08.046Z,53.00
2022-10-06T14:16:10.945Z,53.40
2022-10-06T14:19:42.172Z,53.90
2022-10-06T14:22:43.825Z,53.90
2022-10-06T14:25:45.481Z,53.90
2022-10-06T14:28:48.930Z,54.10
2022-10-06T14:31:50.566Z,54.30
2022-10-06T14:34:52.309Z,54.30
2022-10-06T14:37:53.967Z,54.10
2022-10-06T14:40:55.841Z,54.10
2022-10-06T14:44:01.320Z,53.70
2022-10-06T14:47:02.976Z,53.50
2022-10-06T14:50:05.529Z,53.30
2022-10-06T14:53:10.596Z,52.80
2022-10-06T14:56:14.615Z,52.60
2022-10-06T14:59:18.001Z,52.20
2022-10-06T15:02:20.530Z,51.60
2022-10-06T15:05:23.232Z,51.00
2022-10-06T15:08:24.950Z,50.80
2022-10-06T15:11:28.353Z,50.70
2022-10-06T15:14:30.125Z,50.70
2022-10-06T15:17:31.842Z,51.00
2022-10-06T15:20:33.682Z,51.20
2022-10-06T15:23:36.264Z,50.90
2022-10-06T15:26:56.421Z,50.70
2022-10-06T15:29:58.290Z,50.20
2022-10-06T15:33:04.223Z,49.70
2022-10-06T15:36:18.954Z,49.30
2022-10-06T15:39:22.099Z,49.20
2022-10-06T15:42:25.242Z,49.30
2022-10-06T15:45:26.975Z,49.50
2022-10-06T15:48:29.709Z,49.70
2022-10-06T15:51:44.810Z,49.70
2022-10-06T15:54:49.817Z,49.60
2022-10-06T15:57:52.774Z,49.80
2022-10-06T16:00:54.606Z,49.80
2022-10-06T16:03:58.180Z,49.70
2022-10-06T16:07:00.118Z,50.00
2022-10-06T16:10:01.830Z,50.10
2022-10-06T16:13:03.555Z,50.10
2022-10-06T16:16:05.446Z,50.10
2022-10-06T16:19:07.644Z,50.10
2022-10-06T16:22:16.257Z,50.20
2022-10-06T16:25:17.882Z,50.40
2022-10-06T16:28:19.571Z,50.60
2022-10-06T16:31:21.427Z,50.80
2022-10-06T16:34:23.288Z,51.00
2022-10-06T16:37:24.980Z,51.00
2022-10-06T16:40:26.694Z,51.70
2022-10-06T16:43:32.176Z,52.80
2022-10-06T16:46:34.021Z,53.90
2022-10-06T16:49:35.698Z,54.70
2022-10-06T16:52:37.680Z,55.50
2022-10-06T16:55:41.849Z,56.10
2022-10-06T16:58:45.382Z,56.60
2022-10-06T17:01:47.572Z,57.10
2022-10-06T17:04:49.291Z,57.50
2022-10-06T17:07:54.498Z,58.00
2022-10-06T17:11:10.101Z,58.40
2022-10-06T17:14:12.051Z,59.00
2022-10-06T17:17:13.695Z,59.20
2022-10-06T17:20:15.500Z,59.60
2022-10-06T17:23:17.138Z,60.00
2022-10-06T17:26:19.984Z,60.40
2022-10-06T17:29:22.256Z,60.70
2022-10-06T17:32:24.111Z,61.10
2022-10-06T17:35:25.797Z,61.50
2022-10-06T17:38:30.631Z,61.80
2022-10-06T17:41:34.043Z,62.30
2022-10-06T17:44:35.742Z,62.60
2022-10-06T17:47:37.434Z,63.00
2022-10-06T17:50:39.162Z,63.30
2022-10-06T17:53:46.331Z,63.70
2022-10-06T17:56:49.140Z,64.10
2022-10-06T17:59:52.805Z,64.60
2022-10-06T18:02:57.503Z,65.00
2022-10-06T18:06:00.426Z,65.40
2022-10-06T18:09:02.973Z,65.80
2022-10-06T18:12:06.446Z,66.20
2022-10-06T18:15:10.006Z,66.50
